Time;durP1;ratioP1;P1;durP2;ratioP2;P2;SDS_P1;SDS_P2;PMS_P1;PMS_P2;Temp;Humidity;BMP_temperature;BMP_pressure;BME280_temperature;BME280_humidity;BME280_pressure;Samples;Min_cycle;Max_cycle;Signal;HPM_P1;HPM_P2
2022/10/18 04:57:35;;;;;;;;;14.75;12.75;;;;;18.64;76.36;102395.63;2364630;28;45934;-87
2022/10/18 04:58:45;;;;;;;;;15.50;12.50;;;;;18.65;76.65;102397.38;2371897;28;47605;-87
2022/10/18 04:59:56;;;;;;;;;11.75;11.25;;;;;18.66;76.43;102393.78;2367587;28;45313;-87
2022/10/18 05:01:06;;;;;;;;;10.00;9.25;;;;;18.68;76.28;102396.38;2373906;28;45258;-87
2022/10/18 05:02:17;;;;;;;;;10.50;10.50;;;;;18.71;76.37;102406.03;2376309;28;45241;-87
2022/10/18 05:03:27;;;;;;;;;9.00;6.00;;;;;18.70;76.10;102404.28;2374042;28;46498;-87
2022/10/18 05:04:37;;;;;;;;;7.75;4.50;;;;;18.71;75.36;102406.03;2374333;28;45535;-87
2022/10/18 05:05:48;;;;;;;;;5.00;5.00;;;;;18.71;75.49;102408.69;2375246;28;46431;-87
2022/10/18 05:06:58;;;;;;;;;9.75;8.00;;;;;18.70;75.49;102399.84;2374443;28;45306;-86
2022/10/18 05:08:08;;;;;;;;;7.75;6.50;;;;;18.73;75.83;102409.50;2366064;28;46865;-87
2022/10/18 05:09:23;;;;;;;;;7.00;5.00;;;;;18.72;75.08;102405.09;2359968;29;45464;-87
2022/10/18 05:10:33;;;;;;;;;13.50;12.00;;;;;18.73;75.67;102402.38;2357471;29;47981;-87
2022/10/18 05:11:44;;;;;;;;;12.00;11.75;;;;;18.72;75.81;102402.41;2366155;28;45463;-88
2022/10/18 05:12:54;;;;;;;;;6.00;6.00;;;;;18.73;75.57;102405.03;2373679;28;45432;-89
2022/10/18 05:14:04;;;;;;;;;9.75;8.50;;;;;18.73;75.81;102405.03;2373151;28;44864;-88
2022/10/18 05:15:15;;;;;;;;;13.25;11.75;;;;;18.75;75.52;102403.19;2362988;28;47276;-88
2022/10/18 05:16:27;;;;;;;;;10.25;8.25;;;;;18.77;75.66;102403.09;2366293;28;45424;-89
2022/10/18 05:17:37;;;;;;;;;7.75;5.75;;;;;18.76;75.62;102399.59;2361053;28;47262;-89
2022/10/18 05:18:47;;;;;;;;;7.75;5.25;;;;;18.75;75.63;102416.50;2364046;28;45243;-88
2022/10/18 05:19:58;;;;;;;;;11.00;9.75;;;;;18.76;75.91;102404.91;2370378;28;46083;-89
2022/10/18 05:21:08;;;;;;;;;12.50;11.00;;;;;18.74;75.74;102411.25;2372565;28;45434;-88
2022/10/18 05:22:19;;;;;;;;;13.50;10.25;;;;;18.72;75.62;102408.63;2375584;28;45559;-88
2022/10/18 05:23:29;;;;;;;;;7.50;6.50;;;;;18.72;75.63;102410.41;2364902;28;45256;-89
2022/10/18 05:24:39;;;;;;;;;12.75;8.00;;;;;18.67;75.54;102414.13;2366219;28;47022;-88
2022/10/18 05:25:50;;;;;;;;;11.25;10.50;;;;;18.67;75.52;102406.16;2364671;28;45409;-90
2022/10/18 05:27:00;;;;;;;;;12.25;10.00;;;;;18.65;75.30;102408.00;2363800;28;47138;-89
2022/10/18 05:28:11;;;;;;;;;13.75;12.50;;;;;18.63;75.71;102412.53;2359273;28;45234;-89
2022/10/18 05:29:21;;;;;;;;;14.00;10.75;;;;;18.59;75.26;102402.09;2362107;28;45477;-89
2022/10/18 05:30:32;;;;;;;;;11.50;9.50;;;;;18.58;75.66;102403.00;2374875;28;44772;-89
2022/10/18 05:31:43;;;;;;;;;8.25;8.00;;;;;18.56;75.66;102403.06;2381804;28;45622;-88
2022/10/18 05:32:53;;;;;;;;;12.00;9.00;;;;;18.54;75.70;102404.94;2373992;28;45419;-89
2022/10/18 05:34:03;;;;;;;;;6.50;6.50;;;;;18.55;75.38;102406.66;2368086;28;46959;-88
2022/10/18 05:35:14;;;;;;;;;12.25;10.75;;;;;18.53;75.25;102401.41;2354102;29;44748;-89
2022/10/18 05:36:25;;;;;;;;;10.25;8.00;;;;;18.52;75.83;102401.47;2365121;28;45352;-88
2022/10/18 05:37:35;;;;;;;;;8.50;8.50;;;;;18.51;75.31;102405.03;2377672;28;45437;-88
2022/10/18 05:38:47;;;;;;;;;10.50;7.25;;;;;18.50;75.69;102405.97;2372570;28;46269;-88
2022/10/18 05:39:57;;;;;;;;;8.50;7.25;;;;;18.49;75.95;102406.91;2364567;28;45442;-89
2022/10/18 05:41:08;;;;;;;;;13.00;9.75;;;;;18.49;75.58;102401.59;2368545;28;45486;-88
2022/10/18 05:42:18;;;;;;;;;10.50;9.25;;;;;18.49;75.78;102412.22;2364274;29;45189;-89
2022/10/18 05:43:29;;;;;;;;;7.50;7.50;;;;;18.49;75.51;102412.22;2357386;29;47101;-88
2022/10/18 05:44:39;;;;;;;;;10.00;9.25;;;;;18.48;75.53;102410.50;2351884;29;45271;-89
2022/10/18 05:45:50;;;;;;;;;10.75;8.00;;;;;18.48;75.93;102415.81;2357171;29;46977;-90
2022/10/18 05:47:00;;;;;;;;;15.00;9.75;;;;;18.45;76.02;102406.16;2358888;29;45227;-90
2022/10/18 05:48:10;;;;;;;;;13.00;10.50;;;;;18.44;75.92;102399.97;2370362;28;46180;-90
2022/10/18 05:49:21;;;;;;;;;12.75;11.00;;;;;18.48;75.85;102408.69;2376736;28;44727;-90
2022/10/18 05:50:32;;;;;;;;;8.25;6.25;;;;;18.47;75.90;102406.94;2374363;28;45443;-91
2022/10/18 05:51:43;;;;;;;;;10.50;10.00;;;;;18.47;75.88;102401.63;2375425;28;45164;-89
2022/10/18 05:52:56;;;;;;;;;15.25;14.00;;;;;18.47;75.88;102403.44;2369893;28;46442;-90
2022/10/18 05:54:10;;;;;;;;;15.50;13.00;;;;;18.47;75.82;102403.44;2373020;28;45193;-89
2022/10/18 05:55:20;;;;;;;;;15.50;11.75;;;;;18.47;76.19;102404.28;2370315;28;48490;-89
2022/10/18 05:56:31;;;;;;;;;17.25;13.75;;;;;18.43;75.93;102398.25;2353411;29;44733;-88
2022/10/18 05:57:41;;;;;;;;;10.25;9.25;;;;;18.45;75.90;102408.81;2356319;28;46953;-89
2022/10/18 05:58:52;;;;;;;;;9.25;8.00;;;;;18.44;76.04;102410.63;2371049;28;45335;-88
2022/10/18 06:00:03;;;;;;;;;14.25;11.25;;;;;18.45;75.74;102408.81;2367608;28;46284;-88
2022/10/18 06:01:13;;;;;;;;;21.25;12.00;;;;;18.43;75.88;102416.00;2381573;28;45396;-89
2022/10/18 06:02:24;;;;;;;;;16.75;14.50;;;;;18.41;75.44;102410.75;2385089;28;45418;-88
2022/10/18 06:03:34;;;;;;;;;16.50;13.75;;;;;18.41;75.87;102417.84;2375294;28;45336;-87
2022/10/18 06:04:45;;;;;;;;;9.25;9.00;;;;;18.37;75.94;102414.44;2374253;28;46494;-87
2022/10/18 06:06:03;;;;;;;;;11.25;9.75;;;;;18.37;75.64;102419.75;2374958;28;44840;-87
2022/10/18 06:07:15;;;;;;;;;13.25;11.00;;;;;18.38;76.10;102428.63;2365549;28;47167;-88
2022/10/18 06:08:25;;;;;;;;;13.50;12.00;;;;;18.36;75.36;102422.50;2359620;29;45504;-87
2022/10/18 06:09:36;;;;;;;;;11.50;10.75;;;;;18.35;76.02;102418.97;2367363;28;46137;-87
2022/10/18 06:10:46;;;;;;;;;18.25;13.25;;;;;18.35;75.94;102418.97;2375211;28;45403;-87
2022/10/18 06:11:57;;;;;;;;;14.00;12.75;;;;;18.32;75.74;102421.75;2362015;28;47632;-88
2022/10/18 06:13:07;;;;;;;;;15.25;13.25;;;;;18.31;75.93;102423.56;2362372;28;45880;-88
2022/10/18 06:14:17;;;;;;;;;17.00;15.25;;;;;18.28;75.89;102422.78;2368504;28;46545;-88
2022/10/18 06:15:28;;;;;;;;;20.25;15.50;;;;;18.29;76.11;102430.75;2367112;29;44576;-87
2022/10/18 06:16:38;;;;;;;;;17.75;14.25;;;;;18.26;76.31;102424.66;2378147;28;45263;-89
2022/10/18 06:17:48;;;;;;;;;20.00;13.75;;;;;18.28;76.83;102436.09;2368858;28;45582;-89
2022/10/18 06:18:59;;;;;;;;;16.25;14.50;;;;;18.29;76.28;102429.88;2370283;28;46557;-89
2022/10/18 06:20:09;;;;;;;;;15.50;14.25;;;;;18.28;76.13;102436.09;2383044;28;44640;-89
2022/10/18 06:21:21;;;;;;;;;19.00;14.75;;;;;18.32;76.76;102440.41;2365323;29;47258;-89
2022/10/18 06:22:31;;;;;;;;;17.25;15.75;;;;;18.32;76.66;102441.25;2357329;29;45251;-89
2022/10/18 06:23:41;;;;;;;;;20.25;18.50;;;;;18.32;76.39;102443.06;2360947;28;46280;-89
2022/10/18 06:24:52;;;;;;;;;14.50;13.25;;;;;18.31;76.56;102447.50;2365003;29;45319;-89
2022/10/18 06:26:05;;;;;;;;;20.50;19.50;;;;;18.33;76.55;102439.44;2362235;28;48576;-88
2022/10/18 06:27:15;;;;;;;;;21.75;18.00;;;;;18.33;76.55;102442.13;2369122;28;45371;-88
2022/10/18 06:28:27;;;;;;;;;19.75;16.50;;;;;18.35;76.37;102436.75;2366285;28;48041;-89
2022/10/18 06:29:38;;;;;;;;;15.75;14.25;;;;;18.35;76.46;102437.59;2359558;29;44577;-89
2022/10/18 06:30:48;;;;;;;;;21.75;20.50;;;;;18.36;76.29;102434.00;2357187;29;46935;-89
2022/10/18 06:31:59;;;;;;;;;19.00;16.25;;;;;18.40;76.59;102440.94;2366971;28;45410;-88
2022/10/18 06:33:12;;;;;;;;;24.00;18.50;;;;;18.42;76.48;102432.91;2365075;28;47037;-89
2022/10/18 06:34:23;;;;;;;;;16.75;14.75;;;;;18.44;76.34;102439.03;2369998;28;45433;-89
2022/10/18 06:35:33;;;;;;;;;21.75;16.75;;;;;18.44;76.52;102437.25;2373300;28;45461;-89
2022/10/18 06:36:43;;;;;;;;;22.25;16.00;;;;;18.43;76.52;102435.50;2374927;28;45264;-89
2022/10/18 06:37:54;;;;;;;;;24.25;19.50;;;;;18.44;76.48;102437.25;2374499;28;45284;-89
2022/10/18 06:39:04;;;;;;;;;20.00;17.25;;;;;18.41;76.61;102437.38;2357923;29;44726;-89
2022/10/18 06:40:14;;;;;;;;;18.75;15.50;;;;;18.43;76.53;102443.50;2364845;28;46336;-89
2022/10/18 06:41:25;;;;;;;;;15.25;13.25;;;;;18.43;76.38;102440.84;2374888;28;45354;-89
2022/10/18 06:42:35;;;;;;;;;17.50;15.75;;;;;18.44;76.51;102441.72;2373505;28;45315;-89
2022/10/18 06:43:50;;;;;;;;;16.50;14.75;;;;;18.47;76.63;102443.38;2357330;28;45448;-89
2022/10/18 06:45:00;;;;;;;;;16.50;15.75;;;;;18.49;76.52;102452.16;2369662;28;48123;-89
2022/10/18 06:46:10;;;;;;;;;14.50;13.00;;;;;18.47;76.40;102440.72;2375097;28;44582;-89
2022/10/18 06:47:21;;;;;;;;;18.75;15.25;;;;;18.50;76.59;102451.22;2367782;28;47507;-89
2022/10/18 06:48:32;;;;;;;;;12.50;11.25;;;;;18.51;76.15;102448.53;2377563;28;45465;-89
2022/10/18 06:49:42;;;;;;;;;16.50;13.50;;;;;18.51;76.43;102455.63;2384238;28;46483;-89
2022/10/18 06:50:55;;;;;;;;;14.50;12.75;;;;;18.51;76.24;102456.50;2374955;28;45233;-89
2022/10/18 06:52:29;;;;;;;;;17.75;15.00;;;;;18.51;76.48;102459.16;2370862;28;47301;-88
2022/10/18 06:53:40;;;;;;;;;14.50;12.75;;;;;18.55;76.35;102465.22;2363537;28;44756;-88
2022/10/18 06:54:51;;;;;;;;;13.50;13.25;;;;;18.55;76.46;102457.22;2376364;28;47393;-88
2022/10/18 06:56:07;;;;;;;;;15.00;13.25;;;;;18.54;76.12;102460.84;2364903;28;45335;-89
2022/10/18 06:57:19;;;;;;;;;12.75;12.00;;;;;18.58;76.56;102464.25;2352963;28;47503;-89
2022/10/18 06:58:30;;;;;;;;;15.25;13.75;;;;;18.57;76.51;102454.53;2355635;29;45574;-88
2022/10/18 06:59:40;;;;;;;;;13.00;12.75;;;;;18.61;76.15;102465.00;2360013;28;47992;-88
2022/10/18 07:00:51;;;;;;;;;12.00;10.00;;;;;18.64;76.66;102461.34;2373161;28;45180;-89
2022/10/18 07:02:01;;;;;;;;;15.25;12.50;;;;;18.66;76.60;102468.34;2375028;28;46401;-89
2022/10/18 07:03:11;;;;;;;;;11.25;11.25;;;;;18.69;76.55;102466.50;2370851;28;44764;-88
2022/10/18 07:04:22;;;;;;;;;11.50;11.25;;;;;18.71;76.35;102478.81;2375462;28;46563;-89
2022/10/18 07:05:32;;;;;;;;;13.00;12.25;;;;;18.73;76.31;102479.63;2375150;28;45473;-88
2022/10/18 07:06:42;;;;;;;;;13.25;11.50;;;;;18.73;76.26;102473.41;2375366;28;45437;-89
2022/10/18 07:07:53;;;;;;;;;3.50;3.00;;;;;18.74;75.95;102477.81;2376887;28;45450;-89
2022/10/18 07:09:03;;;;;;;;;11.50;11.50;;;;;18.72;75.56;102474.31;2374006;28;46251;-89
2022/10/18 07:10:13;;;;;;;;;6.50;6.50;;;;;18.71;75.75;102480.59;2366581;28;44752;-89
2022/10/18 07:11:26;;;;;;;;;15.25;11.25;;;;;18.71;76.09;102475.28;2368454;28;45318;-89
2022/10/18 07:12:36;;;;;;;;;17.00;12.50;;;;;18.70;75.88;102478.84;2369690;28;45551;-89
2022/10/18 07:13:46;;;;;;;;;9.50;8.50;;;;;18.68;76.02;102473.59;2364760;28;46871;-89
2022/10/18 07:14:57;;;;;;;;;14.75;12.00;;;;;18.65;76.15;102474.59;2372784;28;45280;-89
2022/10/18 07:16:16;;;;;;;;;15.00;10.25;;;;;18.64;75.85;102475.50;2374775;28;47549;-89
2022/10/18 07:17:26;;;;;;;;;14.50;12.25;;;;;18.65;76.20;102474.59;2378269;28;45241;-87
2022/10/18 07:18:40;;;;;;;;;9.50;9.50;;;;;18.67;76.10;102475.38;2383856;28;47436;-89
2022/10/18 07:19:50;;;;;;;;;13.00;13.00;;;;;18.73;76.23;102486.72;2374756;28;45303;-88
2022/10/18 07:21:05;;;;;;;;;12.50;11.00;;;;;18.76;76.42;102475.97;2377461;28;46249;-89
2022/10/18 07:22:16;;;;;;;;;13.00;12.00;;;;;18.78;76.31;102476.75;2382959;28;45426;-89
2022/10/18 07:23:26;;;;;;;;;11.50;11.00;;;;;18.83;76.11;102482.78;2359340;29;46964;-88
2022/10/18 07:24:36;;;;;;;;;15.50;12.75;;;;;18.87;76.03;102486.16;2364026;28;45276;-88
2022/10/18 07:25:47;;;;;;;;;13.25;12.00;;;;;18.89;75.76;102490.50;2367285;28;47419;-86
2022/10/18 07:26:57;;;;;;;;;13.50;10.50;;;;;18.89;76.24;102485.16;2364041;28;45267;-87
2022/10/18 07:28:07;;;;;;;;;11.50;10.75;;;;;18.95;76.29;102489.41;2356817;29;47600;-87
2022/10/18 07:29:18;;;;;;;;;12.25;11.25;;;;;18.97;76.13;102479.53;2360590;29;45203;-87
2022/10/18 07:30:28;;;;;;;;;8.00;6.25;;;;;19.02;75.86;102484.66;2366698;28;47230;-87
2022/10/18 07:31:39;;;;;;;;;14.00;10.50;;;;;19.04;76.11;102488.13;2377729;28;45258;-87
2022/10/18 07:32:50;;;;;;;;;10.75;9.25;;;;;19.08;76.28;102487.09;2376339;28;46497;-87
2022/10/18 07:34:03;;;;;;;;;13.75;13.25;;;;;19.08;75.91;102479.09;2376915;28;45488;-87
2022/10/18 07:35:14;;;;;;;;;10.75;9.50;;;;;19.09;75.85;102487.94;2374252;28;47460;-87
2022/10/18 07:36:25;;;;;;;;;9.75;7.00;;;;;19.11;76.01;102492.28;2376646;28;45490;-88
2022/10/18 07:37:35;;;;;;;;;10.50;9.25;;;;;19.17;75.80;102492.97;2375322;28;45370;-88
2022/10/18 07:38:45;;;;;;;;;14.25;11.25;;;;;19.17;75.85;102492.97;2375637;28;45295;-89
2022/10/18 07:39:56;;;;;;;;;16.75;10.75;;;;;19.19;75.43;102499.13;2372444;28;46799;-89
2022/10/18 07:41:09;;;;;;;;;12.00;11.00;;;;;19.21;75.55;102489.28;2368671;28;45314;-90
2022/10/18 07:42:19;;;;;;;;;11.50;8.25;;;;;19.22;75.74;102486.53;2382208;28;45506;-88
2022/10/18 07:43:30;;;;;;;;;13.00;9.25;;;;;19.22;75.66;102486.53;2366136;28;45220;-87
2022/10/18 07:44:40;;;;;;;;;15.75;10.50;;;;;19.27;75.38;102491.69;2367324;28;45347;-87
2022/10/18 07:45:52;;;;;;;;;12.00;11.00;;;;;19.26;75.49;102486.44;2375057;28;45715;-88
2022/10/18 07:47:02;;;;;;;;;14.00;11.75;;;;;19.30;75.45;102491.56;2374585;28;45494;-88
2022/10/18 07:48:12;;;;;;;;;14.75;12.50;;;;;19.32;74.98;102497.69;2376354;28;45349;-88
2022/10/18 07:49:23;;;;;;;;;13.50;12.00;;;;;19.32;75.15;102499.47;2368931;28;47706;-88
2022/10/18 07:50:33;;;;;;;;;10.00;9.50;;;;;19.31;75.33;102490.59;2368105;28;45360;-87
2022/10/18 07:51:43;;;;;;;;;15.25;10.50;;;;;19.33;75.16;102496.72;2384443;28;46198;-89
2022/10/18 07:52:54;;;;;;;;;9.75;9.50;;;;;19.34;75.07;102505.59;2369857;28;45534;-89
2022/10/18 07:54:04;;;;;;;;;14.75;11.50;;;;;19.35;75.09;102512.69;2364864;28;46414;-88
2022/10/18 07:55:15;;;;;;;;;9.50;9.00;;;;;19.38;75.11;102506.34;2360955;29;46080;-88
2022/10/18 07:56:25;;;;;;;;;16.00;12.25;;;;;19.41;74.70;102516.91;2362751;28;45649;-87
2022/10/18 07:57:35;;;;;;;;;11.25;9.75;;;;;19.43;75.42;102521.22;2371271;28;44861;-88
2022/10/18 07:58:50;;;;;;;;;14.75;11.75;;;;;19.47;75.47;102516.63;2371465;28;45415;-89
2022/10/18 08:00:00;;;;;;;;;9.25;8.00;;;;;19.47;75.14;102521.97;2361756;28;45630;-87
2022/10/18 08:01:12;;;;;;;;;9.25;8.25;;;;;19.50;74.00;102529.84;2353418;29;48274;-88
2022/10/18 08:02:23;;;;;;;;;7.75;7.25;;;;;19.51;73.83;102526.22;2364034;28;45875;-88
2022/10/18 08:03:34;;;;;;;;;11.25;9.00;;;;;19.53;74.26;102528.84;2370932;28;47270;-87
2022/10/18 08:04:45;;;;;;;;;0.00;0.00;;;;;19.55;74.59;102519.84;2360084;28;44784;-87
2022/10/18 08:05:55;;;;;;;;;9.00;8.00;;;;;19.58;73.93;102528.63;2354068;28;47197;-87
2022/10/18 08:07:05;;;;;;;;;8.75;7.75;;;;;19.55;74.14;102524.31;2364087;28;45477;-87
2022/10/18 08:08:16;;;;;;;;;7.75;7.75;;;;;19.58;74.17;102533.97;2360099;28;47234;-87
2022/10/18 08:09:26;;;;;;;;;5.75;4.75;;;;;19.56;73.67;102526.88;2361043;28;45482;-87
2022/10/18 08:10:36;;;;;;;;;7.50;7.00;;;;;19.59;73.78;102533.03;2361945;28;46564;-87
2022/10/18 08:11:47;;;;;;;;;5.50;5.50;;;;;19.59;73.19;102530.34;2366986;28;45261;-87
2022/10/18 08:12:57;;;;;;;;;10.75;7.25;;;;;19.59;73.46;102528.56;2371632;28;46418;-88
2022/10/18 08:14:07;;;;;;;;;7.75;6.25;;;;;19.60;72.89;102534.78;2361742;28;45977;-87
2022/10/18 08:15:19;;;;;;;;;6.00;6.00;;;;;19.58;72.68;102533.97;2364074;28;45169;-88
2022/10/18 08:16:30;;;;;;;;;6.25;6.25;;;;;19.60;73.08;102540.97;2361059;28;45245;-87
2022/10/18 08:17:42;;;;;;;;;9.50;7.00;;;;;19.60;74.22;102532.97;2354621;28;47032;-87
2022/10/18 08:18:53;;;;;;;;;6.50;5.50;;;;;19.65;74.05;102541.66;2355124;28;45367;-87
2022/10/18 08:20:04;;;;;;;;;10.50;7.50;;;;;19.67;73.73;102544.25;2364338;28;46420;-87
2022/10/18 08:21:16;;;;;;;;;7.00;7.00;;;;;19.67;73.02;102544.25;2371177;28;45486;-88
2022/10/18 08:22:27;;;;;;;;;7.00;6.25;;;;;19.68;72.57;102540.63;2368526;28;47915;-88
2022/10/18 08:23:38;;;;;;;;;6.00;5.50;;;;;19.68;73.12;102548.63;2370985;28;45232;-87
2022/10/18 08:24:49;;;;;;;;;7.50;6.00;;;;;19.70;73.30;102543.25;2371558;28;47090;-88
2022/10/18 08:26:04;;;;;;;;;6.75;5.75;;;;;19.72;72.38;102542.25;2358278;28;45446;-88
2022/10/18 08:27:15;;;;;;;;;7.25;7.25;;;;;19.73;72.68;102548.44;2364473;28;46389;-87
2022/10/18 08:28:25;;;;;;;;;4.00;4.00;;;;;19.73;72.63;102554.63;2360885;28;45500;-87
2022/10/18 08:29:35;;;;;;;;;6.00;6.00;;;;;19.71;72.67;102551.16;2362754;28;45555;-87
2022/10/18 08:30:46;;;;;;;;;8.25;5.00;;;;;19.74;73.02;102550.16;2371471;28;44829;-87
2022/10/18 08:31:56;;;;;;;;;6.50;5.25;;;;;19.75;72.72;102560.78;2360096;28;46794;-87
2022/10/18 08:33:06;;;;;;;;;6.75;5.50;;;;;19.76;72.75;102559.84;2365098;28;45510;-87
2022/10/18 08:34:17;;;;;;;;;8.75;8.25;;;;;19.75;72.15;102558.13;2369313;28;46494;-88
2022/10/18 08:35:27;;;;;;;;;7.25;5.25;;;;;19.78;72.55;102562.44;2359087;28;45515;-87
2022/10/18 08:36:37;;;;;;;;;8.00;6.25;;;;;19.77;72.96;102555.38;2362146;28;45641;-88
2022/10/18 08:37:48;;;;;;;;;10.50;9.50;;;;;19.79;72.28;102558.84;2360374;28;45503;-87
2022/10/18 08:38:58;;;;;;;;;8.25;7.25;;;;;19.78;72.62;102555.31;2363036;28;46467;-87
2022/10/18 08:40:11;;;;;;;;;9.75;7.25;;;;;19.82;73.40;102557.84;2370077;28;44764;-87
2022/10/18 08:41:31;;;;;;;;;6.00;6.00;;;;;19.83;72.41;102554.25;2370771;28;45708;-87
2022/10/18 08:43:37;;;;;;;;;11.00;7.75;;;;;19.85;72.38;102555.88;2371176;28;44751;-90
2022/10/18 08:44:49;;;;;;;;;6.50;6.00;;;;;19.87;72.75;102567.38;2339963;29;46406;-87
2022/10/18 08:46:00;;;;;;;;;15.00;9.75;;;;;19.87;72.49;102554.06;2358266;28;45277;-87
2022/10/18 08:47:27;;;;;;;;;5.25;5.25;;;;;19.89;71.88;102552.19;2370670;28;45464;-87
2022/10/18 08:48:42;;;;;;;;;11.75;8.25;;;;;19.89;72.40;102554.84;2370871;28;45526;-87
2022/10/18 08:50:01;;;;;;;;;8.50;6.25;;;;;19.92;72.07;102553.84;2371737;28;46302;-88
2022/10/18 08:51:34;;;;;;;;;6.50;5.25;;;;;19.90;71.87;102545.88;2370418;28;45178;-87
2022/10/18 08:53:12;;;;;;;;;8.75;7.00;;;;;19.90;72.23;102548.56;2371364;28;45651;-88
2022/10/18 08:54:43;;;;;;;;;7.00;7.00;;;;;19.90;72.40;102548.56;2371026;28;45711;-87
2022/10/18 08:56:09;;;;;;;;;7.00;7.00;;;;;19.88;72.43;102541.56;2370602;28;45724;-91
2022/10/18 08:57:21;;;;;;;;;6.25;6.25;;;;;19.90;72.08;102553.06;2351358;29;48193;-87
2022/10/18 08:58:32;;;;;;;;;7.75;6.00;;;;;19.88;71.92;102536.22;2357612;28;45481;-88
2022/10/18 08:59:43;;;;;;;;;7.50;4.00;;;;;19.88;72.17;102546.88;2371323;28;45578;-88
2022/10/18 09:01:07;;;;;;;;;8.50;7.25;;;;;19.86;72.16;102538.97;2370078;28;46000;-87
2022/10/18 09:02:32;;;;;;;;;5.00;5.00;;;;;19.89;71.97;102537.97;2369941;28;47304;-87
2022/10/18 09:04:07;;;;;;;;;8.00;4.75;;;;;19.90;72.08;102545.88;2369629;28;46632;-87
2022/10/18 09:05:36;;;;;;;;;5.00;5.00;;;;;19.92;71.40;102543.16;2370699;28;45295;-88
2022/10/18 09:07:01;;;;;;;;;11.75;6.00;;;;;19.97;70.84;102545.63;2369017;28;47088;-88
2022/10/18 09:08:35;;;;;;;;;6.00;6.00;;;;;19.99;71.54;102544.63;2370822;28;47566;-88
2022/10/18 09:10:08;;;;;;;;;5.75;5.75;;;;;20.06;71.16;102539.00;2361264;28;48342;-88
2022/10/18 09:11:27;;;;;;;;;5.25;5.25;;;;;20.11;71.71;102543.25;2368953;28;44867;-88
2022/10/18 09:12:47;;;;;;;;;5.00;5.00;;;;;20.16;71.56;102542.16;2371967;28;46471;-88
2022/10/18 09:14:16;;;;;;;;;5.50;5.25;;;;;20.21;70.71;102537.47;2372279;28;45465;-87
2022/10/18 09:15:34;;;;;;;;;7.25;6.00;;;;;20.23;70.70;102539.16;2372312;28;45436;-87
2022/10/18 09:16:53;;;;;;;;;5.00;4.75;;;;;20.27;71.09;102536.34;2363344;28;45446;-87
2022/10/18 09:18:37;;;;;;;;;4.00;4.00;;;;;20.26;70.82;102534.59;2366731;28;46716;-88
2022/10/18 09:20:12;;;;;;;;;4.25;4.00;;;;;20.28;70.20;102532.72;2362806;28;45338;-87
2022/10/18 09:21:47;;;;;;;;;3.50;3.25;;;;;20.24;70.53;102540.88;2356217;28;48105;-87
2022/10/18 09:23:08;;;;;;;;;3.50;3.50;;;;;20.22;70.78;102536.56;2366870;28;45417;-87
2022/10/18 09:24:31;;;;;;;;;3.25;3.25;;;;;20.19;70.35;102539.34;2361714;28;47178;-88
2022/10/18 09:25:48;;;;;;;;;3.25;3.25;;;;;20.18;70.92;102543.81;2366965;28;45553;-87
2022/10/18 09:27:11;;;;;;;;;4.75;3.25;;;;;20.15;70.73;102537.78;2371915;28;45506;-87
2022/10/18 09:28:47;;;;;;;;;4.00;4.00;;;;;20.15;69.91;102538.63;2373004;28;45509;-87
2022/10/18 09:30:12;;;;;;;;;3.00;3.00;;;;;20.09;70.52;102529.06;2372275;28;46415;-87
2022/10/18 09:31:30;;;;;;;;;3.00;3.00;;;;;20.07;70.51;102536.28;2369733;28;44780;-87
2022/10/18 09:33:01;;;;;;;;;2.75;2.75;;;;;20.02;70.72;102533.81;2372328;28;46744;-87
2022/10/18 09:34:32;;;;;;;;;4.25;4.00;;;;;20.04;71.25;102538.22;2360459;28;45466;-87
2022/10/18 09:35:51;;;;;;;;;4.50;4.50;;;;;19.98;71.38;102534.88;2368281;28;46550;-87
2022/10/18 09:37:02;;;;;;;;;5.00;5.00;;;;;20.00;70.95;102537.50;2373062;28;45627;-88
2022/10/18 09:38:17;;;;;;;;;3.00;3.00;;;;;19.97;71.33;102534.97;2364174;28;48003;-88
2022/10/18 09:39:32;;;;;;;;;3.00;2.50;;;;;20.01;71.18;102540.09;2358391;28;45714;-87
2022/10/18 09:40:53;;;;;;;;;5.50;4.00;;;;;20.02;71.43;102540.97;2357149;28;48217;-87
2022/10/18 09:42:15;;;;;;;;;4.25;3.00;;;;;20.06;70.50;102537.22;2366147;28;46344;-87
2022/10/18 09:43:46;;;;;;;;;4.25;3.00;;;;;20.09;70.90;102533.53;2362501;28;46238;-88
2022/10/18 09:45:02;;;;;;;;;4.00;4.00;;;;;20.16;70.09;102529.69;2355741;28;45988;-87
2022/10/18 09:46:15;;;;;;;;;3.75;3.25;;;;;20.18;71.07;102533.16;2366297;28;45507;-87
2022/10/18 09:47:36;;;;;;;;;2.00;1.50;;;;;20.23;71.36;102531.13;2372498;28;46966;-87
2022/10/18 09:48:56;;;;;;;;;2.50;2.50;;;;;20.31;71.62;102533.44;2371713;28;45647;-88
2022/10/18 09:50:38;;;;;;;;;5.25;4.00;;;;;20.36;70.65;102530.56;2363618;28;45444;-88
2022/10/18 09:51:51;;;;;;;;;2.75;2.75;;;;;20.44;71.28;102539.09;2341050;28;45743;-88
2022/10/18 09:53:35;;;;;;;;;3.00;3.00;;;;;20.53;70.43;102544.94;2363451;28;45936;-85
2022/10/18 09:54:54;;;;;;;;;5.00;3.75;;;;;20.56;70.52;102542.13;2370437;28;45554;-87
2022/10/18 09:56:10;;;;;;;;;4.00;3.00;;;;;20.61;70.60;102545.44;2364714;28;45492;-88
2022/10/18 09:57:37;;;;;;;;;3.00;3.00;;;;;20.66;70.01;102542.56;2364334;28;45670;-87
2022/10/18 09:58:50;;;;;;;;;3.00;2.00;;;;;20.66;69.06;102537.22;2370605;28;44911;-88
2022/10/18 10:00:03;;;;;;;;;2.00;2.00;;;;;20.67;70.34;102545.13;2370498;28;46941;-87
2022/10/18 10:01:30;;;;;;;;;3.25;3.25;;;;;20.68;70.77;102540.66;2370813;28;45921;-87
2022/10/18 10:02:40;;;;;;;;;4.50;3.00;;;;;20.68;69.99;102538.88;2370103;28;45364;-88
2022/10/18 10:03:51;;;;;;;;;3.50;3.00;;;;;20.72;70.31;102546.75;2372841;28;45571;-87
2022/10/18 10:05:01;;;;;;;;;4.75;4.75;;;;;20.71;70.17;102537.00;2371821;28;46614;-86
2022/10/18 10:06:13;;;;;;;;;8.75;5.00;;;;;20.73;69.82;102544.00;2372046;28;45756;-85
2022/10/18 10:07:27;;;;;;;;;3.75;3.75;;;;;20.74;69.26;102540.38;2358927;28;47218;-87
2022/10/18 10:08:48;;;;;;;;;3.00;2.50;;;;;20.76;68.94;102545.66;2364259;28;45408;-86
2022/10/18 10:10:12;;;;;;;;;3.00;3.00;;;;;20.73;69.58;102538.66;2371169;28;46307;-87
2022/10/18 10:11:34;;;;;;;;;3.50;3.00;;;;;20.73;68.59;102540.44;2358784;28;45529;-87
2022/10/18 10:12:45;;;;;;;;;5.00;4.00;;;;;20.72;69.71;102536.91;2364854;28;46965;-86
2022/10/18 10:14:18;;;;;;;;;5.00;4.00;;;;;20.75;69.79;102541.22;2361473;28;45445;-87
2022/10/18 10:15:28;;;;;;;;;4.25;4.25;;;;;20.74;69.49;102540.38;2367724;28;45380;-87
2022/10/18 10:16:51;;;;;;;;;2.75;2.75;;;;;20.76;70.00;102532.28;2372254;28;45575;-87
2022/10/18 10:18:03;;;;;;;;;4.75;4.00;;;;;20.77;69.80;102529.53;2372389;28;46879;-87
2022/10/18 10:19:24;;;;;;;;;5.50;3.50;;;;;20.86;69.60;102543.41;2372582;28;46913;-87
2022/10/18 10:20:47;;;;;;;;;5.75;3.75;;;;;20.88;69.13;102537.03;2362267;28;47822;-87
2022/10/18 10:22:07;;;;;;;;;3.50;3.00;;;;;20.89;68.32;102544.09;2355163;28;45189;-87
2022/10/18 10:23:45;;;;;;;;;4.00;4.00;;;;;20.91;68.52;102547.56;2366833;28;45527;-86
2022/10/18 10:24:55;;;;;;;;;8.00;8.00;;;;;20.90;69.35;102548.53;2371461;28;45432;-87
2022/10/18 10:26:22;;;;;;;;;3.25;3.25;;;;;20.91;68.55;102546.72;2371793;28;45467;-87
2022/10/18 10:27:42;;;;;;;;;3.50;3.25;;;;;20.89;68.49;102551.28;2371318;28;44975;-86
2022/10/18 10:28:52;;;;;;;;;4.00;4.00;;;;;20.88;67.85;102550.41;2362271;28;46212;-87
2022/10/18 10:30:19;;;;;;;;;9.00;7.50;;;;;20.87;69.58;102554.00;2355028;29;45466;-87
2022/10/18 10:31:30;;;;;;;;;5.00;5.00;;;;;20.83;67.98;102549.75;2367808;28;45462;-87
2022/10/18 10:32:46;;;;;;;;;4.50;4.00;;;;;20.80;68.40;102549.91;2363898;28;44782;-87
2022/10/18 10:34:04;;;;;;;;;11.25;11.25;;;;;20.79;69.72;102542.84;2362706;28;46892;-88
2022/10/18 10:35:29;;;;;;;;;6.75;6.75;;;;;20.79;69.77;102540.16;2371126;28;45436;-87
2022/10/18 10:36:53;;;;;;;;;14.25;11.25;;;;;20.81;69.93;102551.66;2371318;28;46068;-86
2022/10/18 10:38:05;;;;;;;;;5.00;5.00;;;;;20.79;69.01;102538.34;2371204;28;46047;-87
2022/10/18 10:39:18;;;;;;;;;6.00;6.00;;;;;20.84;68.80;102546.13;2372160;28;46686;-87
2022/10/18 10:40:49;;;;;;;;;7.00;7.00;;;;;20.84;68.90;102539.94;2369684;28;44833;-86